Flight Track Log - Related Links

Times and Time Zones

All times are in EDT time to prevent confusion due to time zone crossing. See the RPA3436 flight status page for this flight to view local times or setup timezone preferences in your user account.

Time Position Orientation Groundspeed Altitude Reporting Facility
EDT Latitude Longitude Course Direction KTS MPH feet Rate Location/Type
Fri 10:40:56 AM 38.7692 -77.0322 83° East 176 203 3,100  Level Washington Center
Fri 10:41:00 AM 38.9616 -76.6987 67° East  Level FlightAware Approximate
Fri 10:41:54 AM 38.7575 -76.9572 101° East 183 211 5,400  Level Washington Center
Fri 10:42:00 AM 39.0061 -76.5878 57° Northeast  Level FlightAware Approximate
Fri 10:42:56 AM 38.8353 -76.9161 22° Northeast 162 186 8,000  Level Washington Center
Fri 10:43:00 AM 39.0497 -76.4759 63° Northeast  Level FlightAware Approximate
Fri 10:43:56 AM 38.9233 -76.8669 23° Northeast 242 278 10,900  Level Washington Center
Fri 10:44:00 AM 39.0958 -76.3654 61° Northeast  Level FlightAware Approximate
Fri 10:44:56 AM 38.9703 -76.7692 58° Northeast 276 318 13,000  Level Washington Center
Fri 10:45:00 AM 39.1250 -76.2500 57° Northeast  Level FlightAware Approximate
Fri 10:45:54 AM 39.0067 -76.6575 67° East 293 337 15,000  Level Washington Center
Fri 10:46:00 AM 39.1542 -76.1752 83° East  Level FlightAware Approximate
Fri 10:46:54 AM 39.0450 -76.5403 67° East 330 380 16,900  Level Washington Center
Fri 10:47:55 AM 39.0856 -76.4233 66° East 351 404 18,400 1,488 Climbing Washington Center
Fri 10:48:55 AM 39.1258 -76.3006 67° East 363 418 19,900 1,339 Climbing Washington Center
Fri 10:49:56 AM 39.1536 -76.1939 71° East 368 423 21,100 1,311 Climbing Washington Center
Fri 10:50:54 AM 39.1731 -76.0442 80° East 374 430 22,500 1,412 Climbing Washington Center
Fri 10:51:55 AM 39.1900 -75.9050 81° East 384 442 23,900 1,289 Climbing Washington Center
Fri 10:52:55 AM 39.2611 -75.7900 51° Northeast 389 448 25,100 1,261 Climbing Washington Center
Fri 10:53:54 AM 39.3447 -75.6828 45° Northeast 389 448 26,400 950 Climbing Washington Center
Fri 10:54:55 AM 39.4281 -75.5756 45° Northeast 408 470 27,000 189 Climbing Washington Center
Fri 10:57:04 AM 39.6100 -75.3411 45° Northeast 413 475 27,000  Level New York Center
Fri 10:58:03 AM 39.6936 -75.2333 45° Northeast 413 475 27,000  Level New York Center
Fri 10:59:03 AM 39.7811 -75.1225 44° Northeast 420 483 27,000  Level New York Center
Fri 11:00:04 AM 39.8664 -75.0144 44° Northeast 427 491 27,000  Level New York Center
Fri 11:01:05 AM 39.9664 -74.8986 42° Northeast 427 491 27,000  Level New York Center
Fri 11:02:03 AM 40.0450 -74.7947 45° Northeast 416 479 27,000  Level New York Center
Fri 11:03:04 AM 40.1342 -74.6858 43° Northeast 416 479 27,000  Level New York Center
Fri 11:04:04 AM 40.2189 -74.5792 44° Northeast 421 484 27,000  Level New York Center
Fri 11:05:06 AM 40.3078 -74.4725 42° Northeast 421 484 27,000 -50 Level New York Center
Fri 11:06:03 AM 40.3925 -74.3625 45° Northeast 421 484 26,900 -458 Descending New York Center
Fri 11:07:04 AM 40.4789 -74.2581 43° Northeast 421 484 26,100 -747 Descending New York Center
Fri 11:09:56 AM 40.7189 -73.9569 44° Northeast 398 458 24,000 -543 Descending Boston Center
Fri 11:10:56 AM 40.8014 -73.8547 43° Northeast 399 459 24,000  Level Boston Center
Fri 11:11:56 AM 40.8861 -73.7522 42° Northeast 410 472 24,000 -100 Level Boston Center
Fri 11:12:56 AM 40.9558 -73.6547 47° Northeast 410 472 23,800 -500 Descending Boston Center
Fri 11:13:56 AM 41.0508 -73.5492 40° Northeast 404 465 23,000 -700 Descending Boston Center
Fri 11:14:56 AM 41.1408 -73.4903 26° Northeast 361 415 22,400 -800 Descending Boston Center
Fri 11:15:56 AM 41.2408 -73.5028 355° North 342 394 21,400 -1,050 Descending Boston Center
Fri 11:16:56 AM 41.3450 -73.5075 358° North 353 406 20,300 -1,050 Descending Boston Center
Fri 11:17:56 AM 41.4450 -73.5064 360° North 353 406 19,300 -1,100 Descending Boston Center
Fri 11:18:56 AM 41.5389 -73.5106 358° North 347 399 18,100 -1,050 Descending Boston Center
Fri 11:19:56 AM 41.6367 -73.5150 358° North 347 399 17,200 -1,250 Descending Boston Center
Fri 11:20:56 AM 41.7283 -73.5167 359° North 341 392 15,600 -1,450 Descending Boston Center
Fri 11:21:56 AM 41.8200 -73.5208 358° North 328 377 14,300 -1,400 Descending Boston Center
Fri 11:22:56 AM 41.9075 -73.5225 359° North 320 368 12,800 -1,400 Descending Boston Center
Fri 11:23:56 AM 41.9950 -73.5239 359° North 315 362 11,500 -900 Descending Boston Center
Fri 11:24:56 AM 42.0722 -73.5281 358° North 307 353 11,000 -333 Descending Boston Center
Fri 11:25:26 AM 42.1222 -73.5261 North 306 352 11,000  Level Boston Center
Fri 11:25:56 AM 42.1408 -73.5319 347° North 307 353 11,000  Level Boston Center
Fri 11:26:27 AM 42.2053 -73.5444 352° North 303 349 11,000 -141 Level Boston Center
Fri 11:27:21 AM 42.2822 -73.5625 350° North 305 351 10,800 -607 Descending Boston Center
Fri 11:27:56 AM 42.3239 -73.5717 351° North 307 353 10,100 -1,705 Descending Boston Center
Fri 11:28:56 AM 42.4114 -73.5875 352° North 300 345 8,100 -1,750 Descending Boston Center
Fri 11:29:56 AM 42.4819 -73.6056 349° North 290 334 6,600 -1,500 Descending Boston Center
Fri 11:30:56 AM 42.5650 -73.6297 348° North 278 320 5,100 -1,150 Descending Boston Center
Fri 11:31:56 AM 42.6253 -73.6450 349° North 253 291 4,300 -800 Descending Boston Center
Fri 11:32:56 AM 42.6961 -73.6661 348° North 233 268 3,500 -700 Descending Boston Center
Fri 11:33:56 AM 42.7522 -73.6814 349° North 233 268 2,900 -550 Descending Boston Center
Fri 11:34:56 AM 42.8186 -73.7025 347° North 228 262 2,400 -450 Descending Boston Center
Fri 11:35:56 AM 42.8661 -73.7347 334° Northwest 220 253 2,000 -400 Descending Boston Center

Login

Don't have an account? Register now (free) for customized features, flight alerts, and more!